sensor_id;sensor_type;location;lat;lon;timestamp;temperature;humidity
31639;DHT22;18248;51.522;7.020;2023-04-03T00:01:02;3.30;99.90
31639;DHT22;18248;51.522;7.020;2023-04-03T00:04:00;3.30;99.90
31639;DHT22;18248;51.522;7.020;2023-04-03T00:07:01;3.30;99.90
31639;DHT22;18248;51.522;7.020;2023-04-03T00:09:59;3.30;99.90
31639;DHT22;18248;51.522;7.020;2023-04-03T00:12:58;3.20;99.90
31639;DHT22;18248;51.522;7.020;2023-04-03T00:15:56;3.20;99.90
31639;DHT22;18248;51.522;7.020;2023-04-03T00:18:55;3.20;99.90
31639;DHT22;18248;51.522;7.020;2023-04-03T00:21:53;3.10;99.90
31639;DHT22;18248;51.522;7.020;2023-04-03T00:24:52;3.00;99.90
31639;DHT22;18248;51.522;7.020;2023-04-03T00:27:50;3.00;99.90
31639;DHT22;18248;51.522;7.020;2023-04-03T00:30:49;2.90;99.90
31639;DHT22;18248;51.522;7.020;2023-04-03T00:33:48;2.90;99.90
31639;DHT22;18248;51.522;7.020;2023-04-03T00:36:46;2.80;99.90
31639;DHT22;18248;51.522;7.020;2023-04-03T00:39:45;2.90;99.90
31639;DHT22;18248;51.522;7.020;2023-04-03T00:42:46;2.90;99.90
31639;DHT22;18248;51.522;7.020;2023-04-03T00:45:48;2.80;99.90
31639;DHT22;18248;51.522;7.020;2023-04-03T00:48:48;2.80;99.90
31639;DHT22;18248;51.522;7.020;2023-04-03T00:51:47;2.80;99.90
31639;DHT22;18248;51.522;7.020;2023-04-03T00:54:46;2.80;99.90
31639;DHT22;18248;51.522;7.020;2023-04-03T00:57:46;2.70;99.90
31639;DHT22;18248;51.522;7.020;2023-04-03T01:00:50;2.70;99.90
31639;DHT22;18248;51.522;7.020;2023-04-03T01:03:49;2.60;99.90
31639;DHT22;18248;51.522;7.020;2023-04-03T01:06:48;2.70;99.90
31639;DHT22;18248;51.522;7.020;2023-04-03T01:09:48;2.70;99.90
31639;DHT22;18248;51.522;7.020;2023-04-03T01:12:50;2.80;99.90
31639;DHT22;18248;51.522;7.020;2023-04-03T01:15:48;2.80;99.90
31639;DHT22;18248;51.522;7.020;2023-04-03T01:18:48;2.90;99.90
31639;DHT22;18248;51.522;7.020;2023-04-03T01:22:20;2.90;99.90
31639;DHT22;18248;51.522;7.020;2023-04-03T01:25:22;2.90;99.90
31639;DHT22;18248;51.522;7.020;2023-04-03T01:28:24;3.00;99.90
31639;DHT22;18248;51.522;7.020;2023-04-03T01:34:33;3.00;99.90
31639;DHT22;18248;51.522;7.020;2023-04-03T01:37:32;3.00;99.90
31639;DHT22;18248;51.522;7.020;2023-04-03T01:40:31;3.10;99.90
31639;DHT22;18248;51.522;7.020;2023-04-03T01:43:29;3.10;99.90
31639;DHT22;18248;51.522;7.020;2023-04-03T01:46:28;3.10;99.90
31639;DHT22;18248;51.522;7.020;2023-04-03T01:49:26;3.10;99.90
31639;DHT22;18248;51.522;7.020;2023-04-03T01:52:28;3.10;99.90
31639;DHT22;18248;51.522;7.020;2023-04-03T01:55:27;3.20;99.90
31639;DHT22;18248;51.522;7.020;2023-04-03T01:58:25;3.20;99.90
31639;DHT22;18248;51.522;7.020;2023-04-03T02:01:24;3.20;99.90
31639;DHT22;18248;51.522;7.020;2023-04-03T02:04:24;3.20;99.90
31639;DHT22;18248;51.522;7.020;2023-04-03T02:07:22;3.20;99.90
31639;DHT22;18248;51.522;7.020;2023-04-03T02:10:21;3.30;99.90
31639;DHT22;18248;51.522;7.020;2023-04-03T02:13:20;3.30;99.90
31639;DHT22;18248;51.522;7.020;2023-04-03T02:16:18;3.30;99.90
31639;DHT22;18248;51.522;7.020;2023-04-03T02:19:17;3.30;99.90
31639;DHT22;18248;51.522;7.020;2023-04-03T02:22:16;3.40;99.90
31639;DHT22;18248;51.522;7.020;2023-04-03T02:25:16;3.40;99.90
31639;DHT22;18248;51.522;7.020;2023-04-03T02:28:16;3.40;99.90
31639;DHT22;18248;51.522;7.020;2023-04-03T02:31:14;3.40;99.90
31639;DHT22;18248;51.522;7.020;2023-04-03T02:34:13;3.30;99.90
31639;DHT22;18248;51.522;7.020;2023-04-03T02:37:14;3.30;99.90
31639;DHT22;18248;51.522;7.020;2023-04-03T02:40:12;3.30;99.90
31639;DHT22;18248;51.522;7.020;2023-04-03T02:43:11;3.30;99.90
31639;DHT22;18248;51.522;7.020;2023-04-03T02:46:09;3.30;99.90
31639;DHT22;18248;51.522;7.020;2023-04-03T02:49:08;3.30;99.90
31639;DHT22;18248;51.522;7.020;2023-04-03T02:52:07;3.30;99.90
31639;DHT22;18248;51.522;7.020;2023-04-03T02:55:06;3.20;99.90
31639;DHT22;18248;51.522;7.020;2023-04-03T02:58:04;3.20;99.90
31639;DHT22;18248;51.522;7.020;2023-04-03T03:01:04;3.20;99.90
31639;DHT22;18248;51.522;7.020;2023-04-03T03:04:03;3.20;99.90
31639;DHT22;18248;51.522;7.020;2023-04-03T03:07:01;3.20;99.90
31639;DHT22;18248;51.522;7.020;2023-04-03T03:10:00;3.20;99.90
31639;DHT22;18248;51.522;7.020;2023-04-03T03:12:59;3.20;99.90
31639;DHT22;18248;51.522;7.020;2023-04-03T03:16:00;3.20;99.90
31639;DHT22;18248;51.522;7.020;2023-04-03T03:18:59;3.20;99.90
31639;DHT22;18248;51.522;7.020;2023-04-03T03:21:58;3.10;99.90
31639;DHT22;18248;51.522;7.020;2023-04-03T03:25:02;3.10;99.90
31639;DHT22;18248;51.522;7.020;2023-04-03T03:28:01;3.10;99.90
31639;DHT22;18248;51.522;7.020;2023-04-03T03:31:00;3.10;99.90
31639;DHT22;18248;51.522;7.020;2023-04-03T03:33:59;3.10;99.90
31639;DHT22;18248;51.522;7.020;2023-04-03T03:36:58;3.10;99.90
31639;DHT22;18248;51.522;7.020;2023-04-03T03:39:56;3.10;99.90
31639;DHT22;18248;51.522;7.020;2023-04-03T03:42:55;3.10;99.90
31639;DHT22;18248;51.522;7.020;2023-04-03T03:45:54;3.00;99.90
31639;DHT22;18248;51.522;7.020;2023-04-03T03:48:54;3.00;99.90
31639;DHT22;18248;51.522;7.020;2023-04-03T03:51:53;3.00;99.90
31639;DHT22;18248;51.522;7.020;2023-04-03T03:54:51;3.00;99.90
31639;DHT22;18248;51.522;7.020;2023-04-03T03:57:50;3.00;99.90
31639;DHT22;18248;51.522;7.020;2023-04-03T04:00:49;3.00;99.90
31639;DHT22;18248;51.522;7.020;2023-04-03T04:03:48;2.90;99.90
31639;DHT22;18248;51.522;7.020;2023-04-03T04:06:46;2.90;99.90
31639;DHT22;18248;51.522;7.020;2023-04-03T04:09:45;2.90;99.90
31639;DHT22;18248;51.522;7.020;2023-04-03T04:12:44;2.80;99.90
31639;DHT22;18248;51.522;7.020;2023-04-03T04:15:43;2.70;99.90
31639;DHT22;18248;51.522;7.020;2023-04-03T04:18:42;2.80;99.90
31639;DHT22;18248;51.522;7.020;2023-04-03T04:21:40;2.80;99.90
31639;DHT22;18248;51.522;7.020;2023-04-03T04:24:39;2.70;99.90
31639;DHT22;18248;51.522;7.020;2023-04-03T04:27:39;2.70;99.90
31639;DHT22;18248;51.522;7.020;2023-04-03T04:30:39;2.70;99.90
31639;DHT22;18248;51.522;7.020;2023-04-03T04:33:38;2.70;99.90
31639;DHT22;18248;51.522;7.020;2023-04-03T04:36:36;2.60;99.90
31639;DHT22;18248;51.522;7.020;2023-04-03T04:39:35;2.60;99.90
31639;DHT22;18248;51.522;7.020;2023-04-03T04:42:34;2.60;99.90
31639;DHT22;18248;51.522;7.020;2023-04-03T04:45:32;2.60;99.90
31639;DHT22;18248;51.522;7.020;2023-04-03T04:48:31;2.60;99.90
31639;DHT22;18248;51.522;7.020;2023-04-03T04:51:29;2.60;99.90
31639;DHT22;18248;51.522;7.020;2023-04-03T04:54:28;2.60;99.90
31639;DHT22;18248;51.522;7.020;2023-04-03T04:57:27;2.50;99.90
31639;DHT22;18248;51.522;7.020;2023-04-03T05:00:25;2.50;99.90
31639;DHT22;18248;51.522;7.020;2023-04-03T05:03:24;2.50;99.90
31639;DHT22;18248;51.522;7.020;2023-04-03T05:06:22;2.50;99.90
31639;DHT22;18248;51.522;7.020;2023-04-03T05:09:21;2.50;99.90
31639;DHT22;18248;51.522;7.020;2023-04-03T05:12:20;2.40;99.90
31639;DHT22;18248;51.522;7.020;2023-04-03T05:15:19;2.40;99.90
31639;DHT22;18248;51.522;7.020;2023-04-03T05:18:18;2.50;99.90
31639;DHT22;18248;51.522;7.020;2023-04-03T05:21:16;2.40;99.90
31639;DHT22;18248;51.522;7.020;2023-04-03T05:24:16;2.40;99.90
31639;DHT22;18248;51.522;7.020;2023-04-03T05:27:16;2.40;99.90
31639;DHT22;18248;51.522;7.020;2023-04-03T05:30:16;2.40;99.90
31639;DHT22;18248;51.522;7.020;2023-04-03T05:33:15;2.40;99.90
31639;DHT22;18248;51.522;7.020;2023-04-03T05:36:13;2.40;99.90
31639;DHT22;18248;51.522;7.020;2023-04-03T05:39:12;2.40;99.90
31639;DHT22;18248;51.522;7.020;2023-04-03T05:42:11;2.40;99.90
31639;DHT22;18248;51.522;7.020;2023-04-03T05:45:10;2.40;99.90
31639;DHT22;18248;51.522;7.020;2023-04-03T05:48:08;2.40;99.90
31639;DHT22;18248;51.522;7.020;2023-04-03T05:51:17;2.40;99.90
31639;DHT22;18248;51.522;7.020;2023-04-03T05:54:20;2.50;99.90
31639;DHT22;18248;51.522;7.020;2023-04-03T05:57:21;2.50;99.90
31639;DHT22;18248;51.522;7.020;2023-04-03T06:00:20;2.50;99.90
31639;DHT22;18248;51.522;7.020;2023-04-03T06:03:19;2.50;99.90
31639;DHT22;18248;51.522;7.020;2023-04-03T06:06:19;2.50;99.90
31639;DHT22;18248;51.522;7.020;2023-04-03T06:09:20;2.60;99.90
31639;DHT22;18248;51.522;7.020;2023-04-03T06:12:19;2.60;99.90
31639;DHT22;18248;51.522;7.020;2023-04-03T06:15:18;2.60;99.90
31639;DHT22;18248;51.522;7.020;2023-04-03T06:18:16;2.60;99.90
31639;DHT22;18248;51.522;7.020;2023-04-03T06:21:15;2.60;99.90
31639;DHT22;18248;51.522;7.020;2023-04-03T06:24:15;2.70;99.90
31639;DHT22;18248;51.522;7.020;2023-04-03T06:27:14;2.70;99.90
31639;DHT22;18248;51.522;7.020;2023-04-03T06:30:14;2.80;99.90
31639;DHT22;18248;51.522;7.020;2023-04-03T06:33:12;2.80;99.90
31639;DHT22;18248;51.522;7.020;2023-04-03T06:36:11;2.80;99.90
31639;DHT22;18248;51.522;7.020;2023-04-03T06:39:17;2.90;99.90
31639;DHT22;18248;51.522;7.020;2023-04-03T06:42:16;2.90;99.90
31639;DHT22;18248;51.522;7.020;2023-04-03T06:45:14;3.00;99.90
31639;DHT22;18248;51.522;7.020;2023-04-03T06:48:13;3.10;99.90
31639;DHT22;18248;51.522;7.020;2023-04-03T06:51:19;3.10;99.90
31639;DHT22;18248;51.522;7.020;2023-04-03T06:54:18;3.20;99.90
31639;DHT22;18248;51.522;7.020;2023-04-03T06:57:16;3.20;99.90
31639;DHT22;18248;51.522;7.020;2023-04-03T07:00:15;3.20;99.90
31639;DHT22;18248;51.522;7.020;2023-04-03T07:03:14;3.30;99.90
31639;DHT22;18248;51.522;7.020;2023-04-03T07:06:16;3.40;99.90
31639;DHT22;18248;51.522;7.020;2023-04-03T07:09:15;3.40;99.90
31639;DHT22;18248;51.522;7.020;2023-04-03T07:12:13;3.50;99.90
31639;DHT22;18248;51.522;7.020;2023-04-03T07:15:12;3.50;99.90
31639;DHT22;18248;51.522;7.020;2023-04-03T07:18:12;3.60;99.90
31639;DHT22;18248;51.522;7.020;2023-04-03T07:21:12;3.60;99.90
31639;DHT22;18248;51.522;7.020;2023-04-03T07:24:12;3.70;99.90
31639;DHT22;18248;51.522;7.020;2023-04-03T07:27:10;3.80;99.90
31639;DHT22;18248;51.522;7.020;2023-04-03T07:30:12;3.90;99.90
31639;DHT22;18248;51.522;7.020;2023-04-03T07:33:13;3.90;99.90
31639;DHT22;18248;51.522;7.020;2023-04-03T07:36:18;4.00;99.90
31639;DHT22;18248;51.522;7.020;2023-04-03T07:39:17;4.10;99.90
31639;DHT22;18248;51.522;7.020;2023-04-03T07:42:15;4.20;99.90
31639;DHT22;18248;51.522;7.020;2023-04-03T07:45:14;4.30;99.90
31639;DHT22;18248;51.522;7.020;2023-04-03T07:48:13;4.30;99.90
31639;DHT22;18248;51.522;7.020;2023-04-03T07:51:12;4.40;99.90
31639;DHT22;18248;51.522;7.020;2023-04-03T07:54:11;4.50;99.90
31639;DHT22;18248;51.522;7.020;2023-04-03T07:57:09;4.60;99.90
31639;DHT22;18248;51.522;7.020;2023-04-03T08:00:08;4.70;99.90
31639;DHT22;18248;51.522;7.020;2023-04-03T08:03:10;4.70;99.90
31639;DHT22;18248;51.522;7.020;2023-04-03T08:06:09;4.80;99.90
31639;DHT22;18248;51.522;7.020;2023-04-03T08:09:07;4.90;99.90
31639;DHT22;18248;51.522;7.020;2023-04-03T08:12:06;5.00;99.90
31639;DHT22;18248;51.522;7.020;2023-04-03T08:15:05;5.10;99.90
31639;DHT22;18248;51.522;7.020;2023-04-03T08:18:05;5.20;99.90
31639;DHT22;18248;51.522;7.020;2023-04-03T08:21:11;5.30;99.90
31639;DHT22;18248;51.522;7.020;2023-04-03T08:24:10;5.40;99.90
31639;DHT22;18248;51.522;7.020;2023-04-03T08:27:08;5.50;99.90
31639;DHT22;18248;51.522;7.020;2023-04-03T08:30:07;5.60;99.90
31639;DHT22;18248;51.522;7.020;2023-04-03T08:33:07;5.70;99.90
31639;DHT22;18248;51.522;7.020;2023-04-03T08:36:18;5.80;99.90
31639;DHT22;18248;51.522;7.020;2023-04-03T08:39:17;5.80;99.90
31639;DHT22;18248;51.522;7.020;2023-04-03T08:42:40;6.00;99.90
31639;DHT22;18248;51.522;7.020;2023-04-03T08:46:01;6.10;99.90
31639;DHT22;18248;51.522;7.020;2023-04-03T08:49:02;6.20;99.90
31639;DHT22;18248;51.522;7.020;2023-04-03T08:52:10;6.30;99.90
31639;DHT22;18248;51.522;7.020;2023-04-03T08:58:48;6.80;99.90
31639;DHT22;18248;51.522;7.020;2023-04-03T09:01:48;7.50;99.90
31639;DHT22;18248;51.522;7.020;2023-04-03T09:04:47;8.20;99.90
31639;DHT22;18248;51.522;7.020;2023-04-03T09:08:14;8.90;99.90
31639;DHT22;18248;51.522;7.020;2023-04-03T09:11:27;9.10;99.90
31639;DHT22;18248;51.522;7.020;2023-04-03T09:15:11;9.10;99.90
31639;DHT22;18248;51.522;7.020;2023-04-03T09:18:21;8.90;99.90
31639;DHT22;18248;51.522;7.020;2023-04-03T09:21:36;8.60;99.90
31639;DHT22;18248;51.522;7.020;2023-04-03T09:24:36;8.50;99.90
31639;DHT22;18248;51.522;7.020;2023-04-03T09:27:35;8.60;99.90
31639;DHT22;18248;51.522;7.020;2023-04-03T09:30:34;8.70;99.90
31639;DHT22;18248;51.522;7.020;2023-04-03T09:33:34;8.70;99.90
31639;DHT22;18248;51.522;7.020;2023-04-03T09:36:47;8.70;99.90
31639;DHT22;18248;51.522;7.020;2023-04-03T09:39:52;8.70;99.90
31639;DHT22;18248;51.522;7.020;2023-04-03T09:42:53;8.80;99.90
31639;DHT22;18248;51.522;7.020;2023-04-03T09:45:52;8.70;99.90
31639;DHT22;18248;51.522;7.020;2023-04-03T09:49:03;8.60;99.90
31639;DHT22;18248;51.522;7.020;2023-04-03T09:52:19;8.70;99.90
31639;DHT22;18248;51.522;7.020;2023-04-03T09:55:24;8.80;99.90
31639;DHT22;18248;51.522;7.020;2023-04-03T09:58:38;9.00;99.90
31639;DHT22;18248;51.522;7.020;2023-04-03T10:01:43;9.20;99.90
31639;DHT22;18248;51.522;7.020;2023-04-03T10:04:44;9.40;99.90
31639;DHT22;18248;51.522;7.020;2023-04-03T10:07:42;9.40;99.90
31639;DHT22;18248;51.522;7.020;2023-04-03T10:10:42;9.50;99.90
31639;DHT22;18248;51.522;7.020;2023-04-03T10:13:56;9.60;99.90
31639;DHT22;18248;51.522;7.020;2023-04-03T10:20:36;9.90;99.60
31639;DHT22;18248;51.522;7.020;2023-04-03T10:23:51;10.00;95.50
31639;DHT22;18248;51.522;7.020;2023-04-03T10:27:02;10.20;96.20
31639;DHT22;18248;51.522;7.020;2023-04-03T10:40:17;10.50;95.60
31639;DHT22;18248;51.522;7.020;2023-04-03T10:46:49;10.60;92.00
31639;DHT22;18248;51.522;7.020;2023-04-03T10:50:04;10.40;92.40
31639;DHT22;18248;51.522;7.020;2023-04-03T10:56:41;10.50;90.70
31639;DHT22;18248;51.522;7.020;2023-04-03T10:59:44;10.40;91.80
31639;DHT22;18248;51.522;7.020;2023-04-03T11:02:56;10.70;93.50
31639;DHT22;18248;51.522;7.020;2023-04-03T11:05:57;10.90;94.00
31639;DHT22;18248;51.522;7.020;2023-04-03T11:09:02;11.10;93.90
31639;DHT22;18248;51.522;7.020;2023-04-03T11:12:28;11.30;93.60
31639;DHT22;18248;51.522;7.020;2023-04-03T11:15:32;11.40;92.00
31639;DHT22;18248;51.522;7.020;2023-04-03T11:19:03;11.40;92.20
31639;DHT22;18248;51.522;7.020;2023-04-03T11:25:23;11.20;88.10
31639;DHT22;18248;51.522;7.020;2023-04-03T11:28:22;11.30;91.70
31639;DHT22;18248;51.522;7.020;2023-04-03T11:34:50;11.70;87.20
31639;DHT22;18248;51.522;7.020;2023-04-03T11:37:52;12.00;90.30
31639;DHT22;18248;51.522;7.020;2023-04-03T11:40:53;12.20;90.70
31639;DHT22;18248;51.522;7.020;2023-04-03T11:44:02;12.40;90.70
31639;DHT22;18248;51.522;7.020;2023-04-03T11:47:06;12.40;85.30
31639;DHT22;18248;51.522;7.020;2023-04-03T11:50:06;12.40;88.70
31639;DHT22;18248;51.522;7.020;2023-04-03T11:59:23;12.30;75.70
31639;DHT22;18248;51.522;7.020;2023-04-03T12:02:37;12.10;81.00
31639;DHT22;18248;51.522;7.020;2023-04-03T12:05:36;12.40;80.70
31639;DHT22;18248;51.522;7.020;2023-04-03T12:11:40;12.90;82.80
31639;DHT22;18248;51.522;7.020;2023-04-03T12:14:39;13.00;81.60
31639;DHT22;18248;51.522;7.020;2023-04-03T12:17:39;12.90;81.30
31639;DHT22;18248;51.522;7.020;2023-04-03T12:21:01;13.10;80.90
31639;DHT22;18248;51.522;7.020;2023-04-03T12:27:40;13.30;79.50
31639;DHT22;18248;51.522;7.020;2023-04-03T12:30:41;13.30;75.20
31639;DHT22;18248;51.522;7.020;2023-04-03T12:34:01;13.30;78.60
31639;DHT22;18248;51.522;7.020;2023-04-03T12:37:08;13.30;75.80
31639;DHT22;18248;51.522;7.020;2023-04-03T12:40:41;13.40;77.40
31639;DHT22;18248;51.522;7.020;2023-04-03T12:46:45;13.50;78.30
31639;DHT22;18248;51.522;7.020;2023-04-03T12:49:44;13.40;74.10
31639;DHT22;18248;51.522;7.020;2023-04-03T12:52:54;13.20;76.20
31639;DHT22;18248;51.522;7.020;2023-04-03T12:55:56;13.50;73.40
31639;DHT22;18248;51.522;7.020;2023-04-03T12:59:19;13.00;72.70
31639;DHT22;18248;51.522;7.020;2023-04-03T13:02:32;12.80;70.20
31639;DHT22;18248;51.522;7.020;2023-04-03T13:05:32;13.10;76.40
31639;DHT22;18248;51.522;7.020;2023-04-03T13:08:31;13.30;77.00
31639;DHT22;18248;51.522;7.020;2023-04-03T13:11:34;13.50;75.90
31639;DHT22;18248;51.522;7.020;2023-04-03T13:14:34;13.60;74.50
31639;DHT22;18248;51.522;7.020;2023-04-03T13:17:38;13.60;75.80
31639;DHT22;18248;51.522;7.020;2023-04-03T13:20:37;13.50;73.90
31639;DHT22;18248;51.522;7.020;2023-04-03T13:23:39;13.60;75.30
31639;DHT22;18248;51.522;7.020;2023-04-03T13:26:38;13.70;73.40
31639;DHT22;18248;51.522;7.020;2023-04-03T13:29:39;13.70;71.80
31639;DHT22;18248;51.522;7.020;2023-04-03T13:32:38;13.30;70.10
31639;DHT22;18248;51.522;7.020;2023-04-03T13:35:39;13.20;73.50
31639;DHT22;18248;51.522;7.020;2023-04-03T13:38:41;13.40;74.40
31639;DHT22;18248;51.522;7.020;2023-04-03T13:41:42;13.50;74.30
31639;DHT22;18248;51.522;7.020;2023-04-03T13:44:41;13.30;72.70
31639;DHT22;18248;51.522;7.020;2023-04-03T13:47:42;13.50;75.40
31639;DHT22;18248;51.522;7.020;2023-04-03T13:50:59;13.70;74.90
31639;DHT22;18248;51.522;7.020;2023-04-03T13:54:00;13.90;73.20
31639;DHT22;18248;51.522;7.020;2023-04-03T13:57:00;14.00;73.00
31639;DHT22;18248;51.522;7.020;2023-04-03T14:00:20;13.80;71.50
31639;DHT22;18248;51.522;7.020;2023-04-03T14:06:29;14.20;73.50
31639;DHT22;18248;51.522;7.020;2023-04-03T14:09:28;14.00;69.40
31639;DHT22;18248;51.522;7.020;2023-04-03T14:12:33;13.70;70.80
31639;DHT22;18248;51.522;7.020;2023-04-03T14:15:33;13.30;70.40
31639;DHT22;18248;51.522;7.020;2023-04-03T14:18:31;13.40;73.10
31639;DHT22;18248;51.522;7.020;2023-04-03T14:21:30;13.40;69.10
31639;DHT22;18248;51.522;7.020;2023-04-03T14:24:28;13.00;70.20
31639;DHT22;18248;51.522;7.020;2023-04-03T14:27:39;13.00;72.30
31639;DHT22;18248;51.522;7.020;2023-04-03T14:30:39;13.30;73.70
31639;DHT22;18248;51.522;7.020;2023-04-03T14:33:38;13.50;74.90
31639;DHT22;18248;51.522;7.020;2023-04-03T14:36:37;13.70;73.90
31639;DHT22;18248;51.522;7.020;2023-04-03T14:39:36;13.70;73.00
31639;DHT22;18248;51.522;7.020;2023-04-03T14:42:37;13.60;71.10
31639;DHT22;18248;51.522;7.020;2023-04-03T14:45:35;13.60;74.20
31639;DHT22;18248;51.522;7.020;2023-04-03T14:48:34;13.80;73.30
31639;DHT22;18248;51.522;7.020;2023-04-03T14:51:33;13.70;73.20
31639;DHT22;18248;51.522;7.020;2023-04-03T14:54:32;13.70;74.30
31639;DHT22;18248;51.522;7.020;2023-04-03T14:57:31;13.80;74.50
31639;DHT22;18248;51.522;7.020;2023-04-03T15:00:30;13.80;74.00
31639;DHT22;18248;51.522;7.020;2023-04-03T15:03:30;13.80;73.90
31639;DHT22;18248;51.522;7.020;2023-04-03T15:06:28;13.80;73.80
31639;DHT22;18248;51.522;7.020;2023-04-03T15:09:27;13.80;73.50
31639;DHT22;18248;51.522;7.020;2023-04-03T15:12:27;13.80;72.40
31639;DHT22;18248;51.522;7.020;2023-04-03T15:15:28;13.90;73.60
31639;DHT22;18248;51.522;7.020;2023-04-03T15:18:32;13.80;73.70
31639;DHT22;18248;51.522;7.020;2023-04-03T15:21:34;13.70;73.00
31639;DHT22;18248;51.522;7.020;2023-04-03T15:24:33;13.60;74.30
31639;DHT22;18248;51.522;7.020;2023-04-03T15:27:31;13.60;73.90
31639;DHT22;18248;51.522;7.020;2023-04-03T15:30:30;13.50;73.10
31639;DHT22;18248;51.522;7.020;2023-04-03T15:33:29;13.30;73.20
31639;DHT22;18248;51.522;7.020;2023-04-03T15:36:28;13.20;74.50
31639;DHT22;18248;51.522;7.020;2023-04-03T15:39:27;13.10;75.10
31639;DHT22;18248;51.522;7.020;2023-04-03T15:42:25;13.10;73.50
31639;DHT22;18248;51.522;7.020;2023-04-03T15:45:24;12.90;73.10
31639;DHT22;18248;51.522;7.020;2023-04-03T15:48:22;12.90;73.10
31639;DHT22;18248;51.522;7.020;2023-04-03T15:51:21;12.80;73.80
31639;DHT22;18248;51.522;7.020;2023-04-03T15:54:20;12.80;74.00
31639;DHT22;18248;51.522;7.020;2023-04-03T15:57:18;12.80;75.00
31639;DHT22;18248;51.522;7.020;2023-04-03T16:00:17;12.80;75.40
31639;DHT22;18248;51.522;7.020;2023-04-03T16:03:18;12.70;76.00
31639;DHT22;18248;51.522;7.020;2023-04-03T16:06:17;12.70;76.20
31639;DHT22;18248;51.522;7.020;2023-04-03T16:09:19;12.60;74.60
31639;DHT22;18248;51.522;7.020;2023-04-03T16:12:17;12.40;75.40
31639;DHT22;18248;51.522;7.020;2023-04-03T16:15:16;12.20;75.20
31639;DHT22;18248;51.522;7.020;2023-04-03T16:18:15;12.10;75.10
31639;DHT22;18248;51.522;7.020;2023-04-03T16:21:16;12.00;75.40
31639;DHT22;18248;51.522;7.020;2023-04-03T16:24:14;12.00;75.10
31639;DHT22;18248;51.522;7.020;2023-04-03T16:27:13;11.90;75.20
31639;DHT22;18248;51.522;7.020;2023-04-03T16:30:12;11.80;74.90
31639;DHT22;18248;51.522;7.020;2023-04-03T16:33:11;11.60;75.20
31639;DHT22;18248;51.522;7.020;2023-04-03T16:36:10;11.50;74.50
31639;DHT22;18248;51.522;7.020;2023-04-03T16:39:09;11.40;75.10
31639;DHT22;18248;51.522;7.020;2023-04-03T16:42:10;11.30;76.30
31639;DHT22;18248;51.522;7.020;2023-04-03T16:45:09;11.30;76.90
31639;DHT22;18248;51.522;7.020;2023-04-03T16:48:08;11.20;76.90
31639;DHT22;18248;51.522;7.020;2023-04-03T16:51:07;11.10;77.20
31639;DHT22;18248;51.522;7.020;2023-04-03T16:54:05;11.10;78.00
31639;DHT22;18248;51.522;7.020;2023-04-03T16:57:06;11.00;78.10
31639;DHT22;18248;51.522;7.020;2023-04-03T17:00:08;10.90;77.80
31639;DHT22;18248;51.522;7.020;2023-04-03T17:03:07;10.80;79.50
31639;DHT22;18248;51.522;7.020;2023-04-03T17:06:06;10.80;79.00
31639;DHT22;18248;51.522;7.020;2023-04-03T17:09:06;10.70;78.80
31639;DHT22;18248;51.522;7.020;2023-04-03T17:12:05;10.60;78.90
31639;DHT22;18248;51.522;7.020;2023-04-03T17:15:04;10.50;79.60
31639;DHT22;18248;51.522;7.020;2023-04-03T17:18:03;10.30;78.50
31639;DHT22;18248;51.522;7.020;2023-04-03T17:21:02;10.30;79.20
31639;DHT22;18248;51.522;7.020;2023-04-03T17:24:03;10.20;79.20
31639;DHT22;18248;51.522;7.020;2023-04-03T17:27:05;10.10;79.20
31639;DHT22;18248;51.522;7.020;2023-04-03T17:30:05;10.00;79.50
31639;DHT22;18248;51.522;7.020;2023-04-03T17:33:03;9.90;79.60
31639;DHT22;18248;51.522;7.020;2023-04-03T17:36:03;9.80;80.00
31639;DHT22;18248;51.522;7.020;2023-04-03T17:39:02;9.80;80.80
31639;DHT22;18248;51.522;7.020;2023-04-03T17:42:00;9.70;80.80
31639;DHT22;18248;51.522;7.020;2023-04-03T17:44:59;9.60;81.30
31639;DHT22;18248;51.522;7.020;2023-04-03T17:47:58;9.60;81.90
31639;DHT22;18248;51.522;7.020;2023-04-03T17:50:57;9.50;82.20
31639;DHT22;18248;51.522;7.020;2023-04-03T17:53:55;9.50;82.70
31639;DHT22;18248;51.522;7.020;2023-04-03T17:56:54;9.40;82.20
31639;DHT22;18248;51.522;7.020;2023-04-03T17:59:52;9.30;82.60
31639;DHT22;18248;51.522;7.020;2023-04-03T18:02:52;9.30;83.60
31639;DHT22;18248;51.522;7.020;2023-04-03T18:05:51;9.20;84.10
31639;DHT22;18248;51.522;7.020;2023-04-03T18:08:53;9.10;84.00
31639;DHT22;18248;51.522;7.020;2023-04-03T18:11:54;9.10;84.50
31639;DHT22;18248;51.522;7.020;2023-04-03T18:14:54;9.00;84.50
31639;DHT22;18248;51.522;7.020;2023-04-03T18:17:52;8.90;84.80
31639;DHT22;18248;51.522;7.020;2023-04-03T18:20:54;8.80;85.10
31639;DHT22;18248;51.522;7.020;2023-04-03T18:23:54;8.80;85.20
31639;DHT22;18248;51.522;7.020;2023-04-03T18:26:59;8.70;86.20
31639;DHT22;18248;51.522;7.020;2023-04-03T18:30:04;8.70;87.10
31639;DHT22;18248;51.522;7.020;2023-04-03T18:33:03;8.60;87.60
31639;DHT22;18248;51.522;7.020;2023-04-03T18:36:05;8.50;87.70
31639;DHT22;18248;51.522;7.020;2023-04-03T18:39:04;8.50;88.90
31639;DHT22;18248;51.522;7.020;2023-04-03T18:42:05;8.40;89.50
31639;DHT22;18248;51.522;7.020;2023-04-03T18:45:09;8.40;90.10
31639;DHT22;18248;51.522;7.020;2023-04-03T18:48:08;8.30;90.10
31639;DHT22;18248;51.522;7.020;2023-04-03T18:51:09;8.30;90.40
31639;DHT22;18248;51.522;7.020;2023-04-03T18:54:08;8.20;90.50
31639;DHT22;18248;51.522;7.020;2023-04-03T18:57:07;8.20;91.20
31639;DHT22;18248;51.522;7.020;2023-04-03T19:00:06;8.10;91.30
31639;DHT22;18248;51.522;7.020;2023-04-03T19:03:05;8.10;92.00
31639;DHT22;18248;51.522;7.020;2023-04-03T19:06:04;8.00;92.30
31639;DHT22;18248;51.522;7.020;2023-04-03T19:09:04;8.00;92.80
31639;DHT22;18248;51.522;7.020;2023-04-03T19:12:05;7.90;93.30
31639;DHT22;18248;51.522;7.020;2023-04-03T19:15:04;7.90;93.30
31639;DHT22;18248;51.522;7.020;2023-04-03T19:18:03;7.80;93.70
31639;DHT22;18248;51.522;7.020;2023-04-03T19:21:01;7.80;94.10
31639;DHT22;18248;51.522;7.020;2023-04-03T19:24:01;7.70;94.10
31639;DHT22;18248;51.522;7.020;2023-04-03T19:26:59;7.70;94.60
31639;DHT22;18248;51.522;7.020;2023-04-03T19:29:58;7.60;95.00
31639;DHT22;18248;51.522;7.020;2023-04-03T19:32:58;7.60;95.20
31639;DHT22;18248;51.522;7.020;2023-04-03T19:35:57;7.60;95.40
31639;DHT22;18248;51.522;7.020;2023-04-03T19:38:56;7.50;95.60
31639;DHT22;18248;51.522;7.020;2023-04-03T19:41:55;7.50;96.00
31639;DHT22;18248;51.522;7.020;2023-04-03T19:44:53;7.40;96.00
31639;DHT22;18248;51.522;7.020;2023-04-03T19:47:55;7.40;96.60
31639;DHT22;18248;51.522;7.020;2023-04-03T19:50:56;7.30;96.50
31639;DHT22;18248;51.522;7.020;2023-04-03T19:53:55;7.30;97.20
31639;DHT22;18248;51.522;7.020;2023-04-03T19:56:53;7.20;97.70
31639;DHT22;18248;51.522;7.020;2023-04-03T19:59:52;7.20;98.20
31639;DHT22;18248;51.522;7.020;2023-04-03T20:02:51;7.10;98.80
31639;DHT22;18248;51.522;7.020;2023-04-03T20:05:50;7.10;99.40
31639;DHT22;18248;51.522;7.020;2023-04-03T20:08:48;7.00;99.90